Time;durP1;ratioP1;P1;durP2;ratioP2;P2;SDS_P1;SDS_P2;PMS_P1;PMS_P2;Temp;Humidity;BMP_temperature;BMP_pressure;BME280_temperature;BME280_humidity;BME280_pressure;Samples;Min_cycle;Max_cycle;Signal;HPM_P1;HPM_P2
2023/04/14 00:01:50;;;;;;;12.43;2.65;;;6.10;99.90;;;;;;5003757;28;20056;-74
2023/04/14 00:04:15;;;;;;;7.00;2.22;;;6.10;99.90;;;;;;4999835;28;20045;-74
2023/04/14 00:06:41;;;;;;;10.20;2.85;;;6.10;99.90;;;;;;5000067;28;20030;-74
2023/04/14 00:09:07;;;;;;;9.23;2.67;;;6.10;99.90;;;;;;4996051;28;20045;-74
2023/04/14 00:11:32;;;;;;;6.78;2.42;;;6.10;99.90;;;;;;4995411;28;20334;-74
2023/04/14 00:14:00;;;;;;;8.15;2.90;;;6.10;99.90;;;;;;4979920;28;20037;-75
2023/04/14 00:16:26;;;;;;;7.40;2.60;;;6.10;99.90;;;;;;4995254;28;20092;-74
2023/04/14 00:18:52;;;;;;;9.82;3.03;;;6.00;99.90;;;;;;4988264;28;20077;-75
2023/04/14 00:21:17;;;;;;;10.82;2.63;;;6.10;99.90;;;;;;4978750;28;20513;-74
2023/04/14 00:23:43;;;;;;;8.18;2.55;;;6.00;99.90;;;;;;4989227;28;20117;-75
2023/04/14 00:26:09;;;;;;;5.85;2.40;;;6.00;99.90;;;;;;5012704;28;20038;-74
2023/04/14 00:28:34;;;;;;;7.40;2.60;;;6.00;99.90;;;;;;5010386;28;20120;-74
2023/04/14 00:31:00;;;;;;;10.93;2.95;;;6.00;99.90;;;;;;4992217;28;20046;-74
2023/04/14 00:33:26;;;;;;;8.63;2.72;;;5.90;99.90;;;;;;4999237;28;20034;-74
2023/04/14 00:35:52;;;;;;;9.85;2.60;;;5.90;99.90;;;;;;4979216;28;20048;-74
2023/04/14 00:38:17;;;;;;;9.32;2.70;;;5.90;99.90;;;;;;5013808;28;20532;-74
2023/04/14 00:40:43;;;;;;;9.57;2.60;;;5.70;99.90;;;;;;5014216;28;20041;-74
2023/04/14 00:43:09;;;;;;;8.90;2.70;;;5.90;99.90;;;;;;4990383;28;20037;-74
2023/04/14 00:45:44;;;;;;;8.20;2.83;;;5.90;99.90;;;;;;4996947;28;20054;-74
2023/04/14 00:48:09;;;;;;;8.68;2.90;;;5.90;99.90;;;;;;4994974;28;20073;-74
2023/04/14 00:50:35;;;;;;;10.45;3.05;;;5.90;99.90;;;;;;4992586;28;20513;-75
2023/04/14 00:53:01;;;;;;;9.73;2.90;;;5.90;99.90;;;;;;5011229;28;20498;-74
2023/04/14 00:55:27;;;;;;;12.57;3.13;;;5.90;99.90;;;;;;5018130;28;20486;-74
2023/04/14 00:57:54;;;;;;;8.25;3.15;;;5.90;99.90;;;;;;4978354;28;20076;-74
2023/04/14 01:00:19;;;;;;;10.35;2.88;;;6.00;99.90;;;;;;4991747;28;20455;-74
2023/04/14 01:02:45;;;;;;;7.70;2.90;;;6.00;99.90;;;;;;4996143;28;20042;-74
2023/04/14 01:05:13;;;;;;;8.75;3.28;;;6.00;99.90;;;;;;4988819;28;20122;-75
2023/04/14 01:07:40;;;;;;;13.75;3.45;;;5.90;99.90;;;;;;4978343;28;20407;-74
2023/04/14 01:10:06;;;;;;;9.18;2.92;;;6.00;99.90;;;;;;4990163;28;20537;-74
2023/04/14 01:13:10;;;;;;;10.82;3.00;;;6.00;99.90;;;;;;4974912;28;20053;-74
2023/04/14 01:15:52;;;;;;;7.53;2.95;;;5.90;99.90;;;;;;4997862;28;20374;-74
2023/04/14 01:18:20;;;;;;;7.00;2.73;;;5.90;99.90;;;;;;4994912;28;20080;-74
2023/04/14 01:20:51;;;;;;;8.02;2.60;;;5.90;99.90;;;;;;4999611;28;20297;-74
2023/04/14 01:23:34;;;;;;;8.48;2.60;;;5.90;99.90;;;;;;5012570;28;20041;-75
2023/04/14 01:26:26;;;;;;;7.10;2.50;;;5.90;99.90;;;;;;5004012;28;20038;-74
2023/04/14 01:29:23;;;;;;;7.35;2.45;;;5.90;99.90;;;;;;4992027;28;20048;-75
2023/04/14 01:32:10;;;;;;;5.70;2.38;;;5.90;99.90;;;;;;4995827;28;20520;-74
2023/04/14 01:34:43;;;;;;;11.02;2.80;;;5.80;99.90;;;;;;4974601;28;20714;-74
2023/04/14 01:37:18;;;;;;;10.68;2.80;;;5.80;99.90;;;;;;4976357;28;20044;-75
2023/04/14 01:39:51;;;;;;;6.32;2.80;;;5.80;99.90;;;;;;4993827;28;20038;-75
2023/04/14 01:42:22;;;;;;;7.55;2.75;;;5.80;99.90;;;;;;4982184;28;20030;-75
2023/04/14 01:44:55;;;;;;;9.30;2.90;;;5.80;99.90;;;;;;5011245;28;20112;-75
2023/04/14 01:47:23;;;;;;;7.60;2.58;;;5.70;99.90;;;;;;5010718;28;20034;-75
2023/04/14 01:49:52;;;;;;;7.82;2.83;;;5.70;99.90;;;;;;4993179;28;20042;-75
2023/04/14 01:52:19;;;;;;;8.15;3.20;;;5.70;99.90;;;;;;5008443;28;20516;-75
2023/04/14 01:54:47;;;;;;;12.15;2.80;;;5.70;99.90;;;;;;4976922;28;20495;-75
2023/04/14 01:57:18;;;;;;;8.27;2.90;;;5.70;99.90;;;;;;5011343;28;20426;-74
2023/04/14 01:59:48;;;;;;;8.57;2.88;;;5.70;99.90;;;;;;4974186;28;20042;-75
2023/04/14 02:02:16;;;;;;;9.00;3.20;;;5.70;99.90;;;;;;5006418;28;20110;-74
2023/04/14 02:04:43;;;;;;;7.70;3.08;;;5.80;99.90;;;;;;4989997;28;20126;-74
2023/04/14 02:07:11;;;;;;;8.35;2.85;;;5.70;99.90;;;;;;4997965;28;20533;-75
2023/04/14 02:09:39;;;;;;;5.97;2.75;;;5.70;99.90;;;;;;4980187;28;20061;-75
2023/04/14 02:12:08;;;;;;;7.82;2.85;;;6.00;99.90;;;;;;4991808;28;20128;-75
2023/04/14 02:14:36;;;;;;;6.15;2.65;;;5.70;99.90;;;;;;5012204;28;20088;-74
2023/04/14 02:17:04;;;;;;;7.38;2.92;;;5.70;99.90;;;;;;4975538;28;20426;-74
2023/04/14 02:19:30;;;;;;;8.25;3.22;;;5.70;99.90;;;;;;4994557;28;20077;-74
2023/04/14 02:21:57;;;;;;;9.60;3.00;;;5.80;99.90;;;;;;5005332;28;20100;-75
2023/04/14 02:24:22;;;;;;;8.57;2.70;;;5.70;99.90;;;;;;4994403;28;20091;-74
2023/04/14 02:27:02;;;;;;;7.93;2.60;;;5.70;99.90;;;;;;5014884;28;20041;-74
2023/04/14 02:29:29;;;;;;;7.93;2.53;;;5.70;99.90;;;;;;4997178;28;20037;-74
2023/04/14 02:32:03;;;;;;;7.72;2.85;;;5.70;99.90;;;;;;4996039;28;20037;-74
2023/04/14 02:34:34;;;;;;;8.90;3.05;;;5.70;99.90;;;;;;4990293;28;20695;-74
2023/04/14 02:37:02;;;;;;;8.68;2.80;;;5.60;99.90;;;;;;4988836;28;20434;-75
2023/04/14 02:39:42;;;;;;;6.50;3.05;;;5.60;99.90;;;;;;4991574;28;20120;-74
2023/04/14 02:42:17;;;;;;;8.85;3.22;;;5.60;99.90;;;;;;5008785;28;20041;-73
2023/04/14 02:44:49;;;;;;;6.32;2.90;;;5.50;99.90;;;;;;4996840;28;20109;-74
2023/04/14 02:47:31;;;;;;;9.25;2.95;;;5.50;99.90;;;;;;5008171;28;20042;-74
2023/04/14 02:49:59;;;;;;;8.48;2.30;;;5.50;99.90;;;;;;4998065;28;20043;-75
2023/04/14 02:52:28;;;;;;;7.82;2.60;;;5.40;99.90;;;;;;4998804;28;20037;-75
2023/04/14 02:54:55;;;;;;;6.95;2.40;;;5.40;99.90;;;;;;4997755;28;20479;-75
2023/04/14 02:57:21;;;;;;;6.60;2.50;;;5.40;99.90;;;;;;5014581;28;20121;-75
2023/04/14 02:59:47;;;;;;;7.70;2.58;;;5.30;99.90;;;;;;4989107;28;20042;-75
2023/04/14 03:02:16;;;;;;;7.00;2.65;;;5.30;99.90;;;;;;5015439;28;20056;-75
2023/04/14 03:04:45;;;;;;;9.65;2.92;;;5.20;99.90;;;;;;5010193;28;20438;-75
2023/04/14 03:07:13;;;;;;;4.80;2.60;;;5.20;99.90;;;;;;4997233;28;20433;-75
2023/04/14 03:09:39;;;;;;;8.25;2.80;;;5.10;99.90;;;;;;4997351;28;20528;-75
2023/04/14 03:12:06;;;;;;;8.18;2.50;;;5.10;99.90;;;;;;4978664;28;20070;-75
2023/04/14 03:14:34;;;;;;;5.13;2.30;;;5.00;99.90;;;;;;4980408;28;20234;-75
2023/04/14 03:17:00;;;;;;;6.20;2.38;;;5.00;99.90;;;;;;4987718;28;20524;-75
2023/04/14 03:19:27;;;;;;;6.63;2.55;;;5.00;99.90;;;;;;4977080;28;20033;-75
2023/04/14 03:21:54;;;;;;;6.40;2.70;;;4.90;99.90;;;;;;5013260;28;20048;-75
2023/04/14 03:24:26;;;;;;;5.10;2.60;;;4.90;99.90;;;;;;4973521;28;20100;-75
2023/04/14 03:27:00;;;;;;;6.47;2.72;;;4.90;99.90;;;;;;4995641;28;20068;-75
2023/04/14 03:29:30;;;;;;;8.77;2.60;;;4.90;99.90;;;;;;4979859;28;20052;-75
2023/04/14 03:31:59;;;;;;;6.55;2.85;;;4.90;99.90;;;;;;5018190;23;20053;-63
2023/04/14 03:34:30;;;;;;;8.75;2.90;;;4.90;99.90;;;;;;5014486;28;20449;-64
2023/04/14 03:36:57;;;;;;;11.98;3.00;;;4.90;99.90;;;;;;5031234;28;20038;-64
2023/04/14 03:39:33;;;;;;;6.82;3.17;;;4.90;99.90;;;;;;5035722;28;20139;-64
2023/04/14 03:42:00;;;;;;;11.32;2.90;;;4.90;99.90;;;;;;5005619;28;20041;-65
2023/04/14 03:44:31;;;;;;;9.35;2.85;;;4.90;99.90;;;;;;5024450;28;20049;-63
2023/04/14 03:46:59;;;;;;;8.60;3.42;;;4.90;99.90;;;;;;5004058;28;20092;-64
2023/04/14 03:49:26;;;;;;;9.15;3.20;;;4.80;99.90;;;;;;5029425;28;20056;-63
2023/04/14 03:51:58;;;;;;;8.32;2.90;;;4.80;99.90;;;;;;5041430;28;20132;-64
2023/04/14 03:54:26;;;;;;;5.53;2.80;;;4.80;99.90;;;;;;5028187;28;20072;-64
2023/04/14 03:56:55;;;;;;;7.05;2.80;;;4.80;99.90;;;;;;5018185;28;20491;-64
2023/04/14 03:59:24;;;;;;;7.60;2.60;;;4.80;99.90;;;;;;5035158;28;20044;-64
2023/04/14 04:01:51;;;;;;;8.30;2.60;;;4.80;99.90;;;;;;5037257;28;20048;-65
2023/04/14 04:04:18;;;;;;;7.72;2.92;;;4.80;99.90;;;;;;5024402;28;20045;-63
2023/04/14 04:06:43;;;;;;;12.70;3.30;;;4.80;99.90;;;;;;5013210;28;20051;-63
2023/04/14 04:09:13;;;;;;;9.50;2.83;;;4.70;99.90;;;;;;5013928;28;20041;-64
2023/04/14 04:11:40;;;;;;;8.10;2.88;;;4.70;99.90;;;;;;5030268;28;20128;-64
2023/04/14 04:14:07;;;;;;;9.15;3.03;;;4.70;99.90;;;;;;5031476;28;20041;-63
2023/04/14 04:16:35;;;;;;;6.70;3.63;;;4.70;99.90;;;;;;5030791;28;20381;-64
2023/04/14 04:19:04;;;;;;;7.13;2.92;;;4.70;99.90;;;;;;5018105;28;20395;-64
2023/04/14 04:21:32;;;;;;;6.85;3.03;;;4.70;99.90;;;;;;5031846;28;20076;-63
2023/04/14 04:24:00;;;;;;;9.45;3.38;;;4.70;99.90;;;;;;5024179;28;20038;-64
2023/04/14 04:26:26;;;;;;;8.90;3.05;;;4.60;99.90;;;;;;5009977;28;20053;-63
2023/04/14 04:28:56;;;;;;;7.63;3.13;;;4.60;99.90;;;;;;5012015;28;20072;-63
2023/04/14 04:31:23;;;;;;;5.82;2.95;;;4.60;99.90;;;;;;5013639;28;20407;-64
2023/04/14 04:33:50;;;;;;;7.60;3.35;;;4.60;99.90;;;;;;5011633;28;20057;-64
2023/04/14 04:36:17;;;;;;;10.55;3.40;;;4.60;99.90;;;;;;5008814;28;20112;-63
2023/04/14 04:38:42;;;;;;;6.57;2.95;;;4.60;99.90;;;;;;5022753;28;20052;-63
2023/04/14 04:41:23;;;;;;;12.43;3.00;;;4.60;99.90;;;;;;5022883;28;20037;-63
2023/04/14 04:43:49;;;;;;;4.55;3.10;;;4.50;99.90;;;;;;5011698;28;20045;-64
2023/04/14 04:46:20;;;;;;;10.77;3.10;;;4.50;99.90;;;;;;5030679;28;20044;-64
2023/04/14 04:48:49;;;;;;;6.18;2.80;;;4.50;99.90;;;;;;5033593;28;20055;-64
2023/04/14 04:51:16;;;;;;;7.97;2.90;;;4.50;99.90;;;;;;5030415;28;20087;-64
2023/04/14 04:53:42;;;;;;;7.95;3.10;;;4.40;99.90;;;;;;5034774;28;20045;-64
2023/04/14 04:56:08;;;;;;;6.78;2.90;;;4.40;99.90;;;;;;5030638;28;20029;-63
2023/04/14 04:58:33;;;;;;;6.45;2.90;;;4.40;99.90;;;;;;5011749;28;20048;-63
2023/04/14 05:01:05;;;;;;;13.10;3.75;;;4.40;99.90;;;;;;5016185;28;20041;-63
2023/04/14 05:03:31;;;;;;;7.60;2.95;;;4.40;99.90;;;;;;5031928;28;20041;-64
2023/04/14 05:05:58;;;;;;;9.60;3.28;;;4.30;99.90;;;;;;5030010;28;20045;-64
2023/04/14 05:08:23;;;;;;;7.32;3.55;;;4.40;99.90;;;;;;5027232;28;20033;-64
2023/04/14 05:10:49;;;;;;;7.55;3.00;;;4.30;99.90;;;;;;4994377;28;20760;-64
2023/04/14 05:13:15;;;;;;;10.93;3.33;;;4.30;99.90;;;;;;5012788;28;20042;-63
2023/04/14 05:15:41;;;;;;;7.90;3.40;;;4.40;99.90;;;;;;5032803;28;20099;-65
2023/04/14 05:18:06;;;;;;;8.25;3.40;;;4.40;99.90;;;;;;5018703;28;20037;-64
2023/04/14 05:20:32;;;;;;;8.90;3.45;;;4.40;99.90;;;;;;4996844;28;20046;-63
2023/04/14 05:22:58;;;;;;;7.70;3.38;;;4.40;99.90;;;;;;5028774;28;20450;-63
2023/04/14 05:25:23;;;;;;;10.15;3.22;;;4.40;99.90;;;;;;5016473;28;20384;-64
2023/04/14 05:27:49;;;;;;;9.02;3.22;;;4.40;99.90;;;;;;5024289;28;20037;-64
2023/04/14 05:30:15;;;;;;;8.45;3.30;;;4.40;99.90;;;;;;5022557;28;20052;-64
2023/04/14 05:32:40;;;;;;;8.13;3.13;;;4.40;99.90;;;;;;5007861;28;20129;-63
2023/04/14 05:35:07;;;;;;;7.35;3.60;;;4.40;99.90;;;;;;5017104;28;20041;-63
2023/04/14 05:37:32;;;;;;;8.82;3.20;;;4.50;99.90;;;;;;5035624;28;20495;-64
2023/04/14 05:39:58;;;;;;;10.32;3.40;;;4.40;99.90;;;;;;5010402;28;20073;-63
2023/04/14 05:42:24;;;;;;;7.93;3.35;;;4.50;99.90;;;;;;5028523;28;20037;-63
2023/04/14 05:44:49;;;;;;;10.90;3.13;;;4.50;99.90;;;;;;5033414;28;20037;-63
2023/04/14 05:47:15;;;;;;;9.25;4.03;;;4.50;99.90;;;;;;5029093;28;20033;-63
2023/04/14 05:49:40;;;;;;;7.28;3.40;;;4.50;99.90;;;;;;5007634;28;20597;-63
2023/04/14 05:52:06;;;;;;;8.00;3.40;;;4.50;99.90;;;;;;5029666;28;20091;-64
2023/04/14 05:54:31;;;;;;;10.68;3.03;;;4.50;99.90;;;;;;5013526;28;20140;-64
2023/04/14 05:56:57;;;;;;;10.07;3.88;;;4.60;99.90;;;;;;5035967;28;20510;-63
2023/04/14 05:59:22;;;;;;;8.55;4.00;;;4.60;99.90;;;;;;5018887;28;20045;-64
2023/04/14 06:01:48;;;;;;;10.27;4.03;;;4.60;99.90;;;;;;5015824;28;20041;-63
2023/04/14 06:04:14;;;;;;;16.15;5.45;;;4.70;99.90;;;;;;5023267;28;20041;-63
2023/04/14 06:06:40;;;;;;;11.85;5.85;;;4.70;99.90;;;;;;5017135;28;20507;-64
2023/04/14 06:09:05;;;;;;;14.38;5.30;;;4.70;99.90;;;;;;5013798;28;20132;-63
2023/04/14 06:11:31;;;;;;;10.40;4.65;;;4.70;99.90;;;;;;5035517;28;20037;-64
2023/04/14 06:13:57;;;;;;;11.18;5.03;;;4.80;99.90;;;;;;5024771;28;20026;-64
2023/04/14 06:16:23;;;;;;;10.70;4.65;;;4.80;99.90;;;;;;5031475;28;20483;-64
2023/04/14 06:18:48;;;;;;;15.52;5.00;;;4.90;99.90;;;;;;5036083;28;20029;-64
2023/04/14 06:21:14;;;;;;;11.80;4.55;;;4.90;99.90;;;;;;5036604;28;20091;-64
2023/04/14 06:23:39;;;;;;;9.80;4.22;;;4.90;99.90;;;;;;5021965;28;20045;-63
2023/04/14 06:26:05;;;;;;;15.40;4.80;;;5.00;99.90;;;;;;5036136;28;20037;-63
2023/04/14 06:28:31;;;;;;;13.00;5.03;;;5.00;99.90;;;;;;5034024;28;20036;-63
2023/04/14 06:30:56;;;;;;;9.80;4.60;;;5.10;99.90;;;;;;5021346;28;20510;-66
2023/04/14 06:33:22;;;;;;;10.88;4.93;;;5.10;99.90;;;;;;5018467;28;20042;-63
2023/04/14 06:35:48;;;;;;;18.45;5.28;;;5.10;99.90;;;;;;5024154;28;20037;-63
2023/04/14 06:38:14;;;;;;;16.63;4.55;;;5.20;99.90;;;;;;5017542;28;20057;-62
2023/04/14 06:40:40;;;;;;;12.95;4.60;;;5.20;99.90;;;;;;5033507;28;20033;-65
2023/04/14 06:43:06;;;;;;;9.73;4.85;;;5.30;99.90;;;;;;5028793;28;20516;-63
2023/04/14 06:45:32;;;;;;;8.93;4.40;;;5.40;99.90;;;;;;5041644;28;20041;-63
2023/04/14 06:47:57;;;;;;;14.00;4.72;;;5.40;99.90;;;;;;5035813;28;20106;-62
2023/04/14 06:50:23;;;;;;;7.57;3.75;;;5.50;99.90;;;;;;5017942;28;20136;-65
2023/04/14 06:52:49;;;;;;;10.38;4.40;;;5.50;99.90;;;;;;5030499;28;20091;-62
2023/04/14 06:55:15;;;;;;;10.60;4.00;;;5.60;99.90;;;;;;5026324;28;20038;-62
2023/04/14 06:57:40;;;;;;;16.00;4.93;;;5.60;99.90;;;;;;5035896;28;20408;-63
2023/04/14 07:00:09;;;;;;;9.52;3.65;;;5.70;99.90;;;;;;5030601;28;20037;-62
2023/04/14 07:02:35;;;;;;;8.15;4.00;;;5.80;99.90;;;;;;5027553;28;20038;-63
2023/04/14 07:05:01;;;;;;;8.85;4.35;;;5.80;99.90;;;;;;5027670;28;20127;-63
2023/04/14 07:07:26;;;;;;;14.30;4.93;;;5.80;99.90;;;;;;5017868;28;20041;-62
2023/04/14 07:09:52;;;;;;;13.80;4.78;;;5.90;99.90;;;;;;5028957;28;20404;-65
2023/04/14 07:12:18;;;;;;;11.40;4.10;;;6.00;99.90;;;;;;5030025;28;20060;-63
2023/04/14 07:14:50;;;;;;;11.02;4.90;;;6.00;99.90;;;;;;5010580;28;20509;-63
2023/04/14 07:17:17;;;;;;;;;;;6.10;99.90;;;;;;5029442;28;20490;-67
2023/04/14 07:19:43;;;;;;;10.30;4.50;;;6.20;99.90;;;;;;5032259;28;19921;-63
2023/04/14 07:22:08;;;;;;;12.00;4.35;;;6.30;99.90;;;;;;5006739;28;20158;-64
2023/04/14 07:24:34;;;;;;;12.52;4.40;;;6.40;99.90;;;;;;5032009;28;20483;-65
2023/04/14 07:26:59;;;;;;;10.70;4.40;;;6.50;99.90;;;;;;5028726;28;20068;-63
2023/04/14 07:29:26;;;;;;;10.10;4.57;;;6.50;99.90;;;;;;5029838;28;20037;-63
2023/04/14 07:31:52;;;;;;;9.82;4.15;;;6.50;99.90;;;;;;4996294;28;20129;-63
2023/04/14 07:34:18;;;;;;;7.38;3.65;;;6.60;99.90;;;;;;5014071;28;20081;-63
2023/04/14 07:36:44;;;;;;;11.93;4.57;;;6.60;99.90;;;;;;5030051;28;20645;-63
2023/04/14 07:39:10;;;;;;;11.48;3.90;;;6.70;99.90;;;;;;5027962;28;20118;-63
2023/04/14 07:41:35;;;;;;;11.13;4.15;;;6.80;99.90;;;;;;5013694;28;20104;-62
2023/04/14 07:44:01;;;;;;;12.55;4.13;;;6.90;99.90;;;;;;5038243;28;20486;-65
2023/04/14 07:46:27;;;;;;;12.90;4.07;;;7.00;99.90;;;;;;5019393;28;20069;-65
2023/04/14 07:48:52;;;;;;;8.55;4.03;;;7.10;99.90;;;;;;5025273;28;20545;-62
2023/04/14 07:51:18;;;;;;;14.07;4.07;;;7.20;99.90;;;;;;5029355;28;20374;-64
2023/04/14 07:53:44;;;;;;;12.38;4.47;;;7.30;99.90;;;;;;5013050;28;20152;-63
2023/04/14 07:56:14;;;;;;;10.73;4.20;;;7.30;99.90;;;;;;5030508;28;20040;-63
2023/04/14 07:58:40;;;;;;;11.25;3.50;;;7.40;99.90;;;;;;5039837;28;20082;-63
2023/04/14 08:01:06;;;;;;;10.35;4.80;;;7.50;99.90;;;;;;5028103;28;20041;-68
2023/04/14 08:03:32;;;;;;;14.57;4.30;;;7.70;99.90;;;;;;5012905;28;20083;-63
2023/04/14 08:05:57;;;;;;;15.23;4.32;;;7.60;99.90;;;;;;5021265;28;20132;-66
2023/04/14 08:08:24;;;;;;;9.27;4.18;;;7.70;99.90;;;;;;5030144;28;20095;-62
2023/04/14 08:10:49;;;;;;;7.18;3.65;;;7.70;99.90;;;;;;5012071;28;20490;-62
2023/04/14 08:13:15;;;;;;;13.05;4.22;;;7.80;99.90;;;;;;5037456;28;20116;-65
2023/04/14 08:15:40;;;;;;;7.50;3.63;;;7.80;99.90;;;;;;5029965;28;20041;-63
2023/04/14 08:18:09;;;;;;;8.98;3.88;;;7.90;99.90;;;;;;5041437;28;20103;-64
2023/04/14 08:20:35;;;;;;;12.68;4.70;;;7.90;99.90;;;;;;5031169;28;20045;-63
2023/04/14 08:23:00;;;;;;;10.55;3.90;;;8.00;99.90;;;;;;5007038;28;20041;-63
2023/04/14 08:25:26;;;;;;;8.68;3.95;;;8.10;99.90;;;;;;5013027;28;20057;-67
2023/04/14 08:27:51;;;;;;;13.80;4.53;;;8.10;99.90;;;;;;5030568;28;20522;-63
2023/04/14 08:30:17;;;;;;;12.63;4.40;;;8.20;99.90;;;;;;5009347;28;20124;-63
2023/04/14 08:32:42;;;;;;;12.73;4.30;;;8.30;99.90;;;;;;5036919;28;20037;-63
2023/04/14 08:35:08;;;;;;;11.27;4.65;;;8.40;99.90;;;;;;5005787;28;20042;-69
2023/04/14 08:37:34;;;;;;;13.65;4.50;;;8.40;99.90;;;;;;5009611;28;20443;-63
2023/04/14 08:40:00;;;;;;;10.90;4.63;;;8.50;99.90;;;;;;5014926;28;20038;-63
2023/04/14 08:42:26;;;;;;;11.73;4.63;;;8.60;99.90;;;;;;5028958;28;20041;-63
2023/04/14 08:44:52;;;;;;;9.48;4.50;;;8.70;99.90;;;;;;5025646;28;20068;-63
2023/04/14 08:47:21;;;;;;;9.57;3.95;;;8.90;99.90;;;;;;5005399;28;20128;-63
2023/04/14 08:50:01;;;;;;;8.57;3.97;;;9.00;99.90;;;;;;5026921;28;20037;-64
2023/04/14 08:52:27;;;;;;;11.98;3.15;;;9.30;99.90;;;;;;5019883;28;20049;-63
2023/04/14 08:54:55;;;;;;;9.75;3.35;;;9.40;99.90;;;;;;5029508;28;20487;-65
2023/04/14 08:57:23;;;;;;;6.63;2.55;;;9.60;99.90;;;;;;5024461;28;20113;-66
2023/04/14 08:59:50;;;;;;;11.05;2.42;;;9.90;99.90;;;;;;5012948;28;20501;-66
2023/04/14 09:02:17;;;;;;;11.52;2.67;;;10.10;99.90;;;;;;5012875;28;20124;-63
2023/04/14 09:04:44;;;;;;;10.50;2.40;;;10.30;99.90;;;;;;5026581;28;20543;-63
2023/04/14 09:07:11;;;;;;;7.82;2.25;;;10.60;99.90;;;;;;5030055;28;20045;-64
2023/04/14 09:09:37;;;;;;;6.38;2.25;;;10.80;99.90;;;;;;5012385;28;20455;-64
2023/04/14 09:12:03;;;;;;;7.65;2.35;;;11.10;99.90;;;;;;5009601;28;20120;-64
2023/04/14 09:14:29;;;;;;;10.52;2.45;;;11.40;99.90;;;;;;5012978;28;20427;-63
2023/04/14 09:16:56;;;;;;;9.05;2.47;;;11.50;99.90;;;;;;5001870;28;21489;-64
2023/04/14 09:19:25;;;;;;;9.30;2.55;;;11.70;99.90;;;;;;5012618;28;20198;-63
2023/04/14 09:21:51;;;;;;;10.68;2.70;;;12.00;99.90;;;;;;5030081;28;20040;-63
2023/04/14 09:24:18;;;;;;;11.75;2.95;;;12.30;99.90;;;;;;5029314;28;20041;-65
2023/04/14 09:26:44;;;;;;;13.70;3.00;;;12.40;99.90;;;;;;5011128;28;20053;-65
2023/04/14 09:29:10;;;;;;;7.65;3.15;;;12.50;99.90;;;;;;5011753;28;20044;-66
2023/04/14 09:31:36;;;;;;;9.18;3.13;;;12.70;99.90;;;;;;5021678;28;20045;-63
2023/04/14 09:34:02;;;;;;;14.18;3.03;;;12.80;99.90;;;;;;5052864;22;20095;-72
2023/04/14 09:36:28;;;;;;;9.13;2.97;;;12.90;99.90;;;;;;4996736;28;20045;-73
2023/04/14 09:38:54;;;;;;;11.27;2.90;;;13.00;99.90;;;;;;5012082;28;20038;-73
2023/04/14 09:41:21;;;;;;;8.65;2.75;;;13.10;99.90;;;;;;4992755;28;20029;-73
2023/04/14 09:43:48;;;;;;;9.93;3.08;;;13.30;99.90;;;;;;4997350;28;20045;-73
2023/04/14 09:46:17;;;;;;;7.07;2.63;;;13.50;99.90;;;;;;5015002;28;20069;-73
2023/04/14 09:48:52;;;;;;;8.98;3.30;;;14.20;99.90;;;;;;4994440;28;20038;-73
2023/04/14 09:51:27;;;;;;;11.20;2.97;;;13.90;99.90;;;;;;5014649;28;20095;-73
2023/04/14 09:53:55;;;;;;;9.38;2.75;;;14.00;99.90;;;;;;4998705;28;20041;-73
2023/04/14 09:56:27;;;;;;;7.97;2.70;;;14.20;99.90;;;;;;5014506;28;20044;-73
2023/04/14 09:58:58;;;;;;;8.88;2.95;;;14.30;99.90;;;;;;5032679;28;20033;-73
2023/04/14 10:01:30;;;;;;;8.82;2.78;;;15.20;99.90;;;;;;5017552;28;20045;-73
2023/04/14 10:03:55;;;;;;;;;;;14.90;99.90;;;;;;5033548;28;20531;-73
2023/04/14 10:06:22;;;;;;;8.45;2.55;;;14.80;99.90;;;;;;5010231;28;19917;-73
2023/04/14 10:08:54;;;;;;;7.18;2.70;;;15.10;99.90;;;;;;5009722;28;20485;-73
2023/04/14 10:11:20;;;;;;;6.88;2.50;;;14.70;99.90;;;;;;5017523;28;20049;-72
2023/04/14 10:13:53;;;;;;;5.10;2.45;;;14.60;99.90;;;;;;5018378;28;20068;-73
2023/04/14 10:16:21;;;;;;;7.47;2.50;;;14.80;99.90;;;;;;4999591;28;20075;-74
2023/04/14 10:18:47;;;;;;;7.03;2.17;;;14.90;99.90;;;;;;5011866;28;20164;-73
2023/04/14 10:21:15;;;;;;;4.82;2.03;;;15.20;99.90;;;;;;5017133;28;20048;-73
2023/04/14 10:23:41;;;;;;;7.88;2.67;;;15.30;99.90;;;;;;5015672;28;20511;-73
2023/04/14 10:26:13;;;;;;;10.75;2.90;;;15.00;99.90;;;;;;5019019;28;20080;-73
2023/04/14 10:28:46;;;;;;;8.07;2.50;;;14.60;99.90;;;;;;5016089;28;20051;-73
2023/04/14 10:31:37;;;;;;;6.22;2.22;;;14.30;99.50;;;;;;5013491;28;20121;-74
2023/04/14 10:34:10;;;;;;;6.88;2.00;;;14.40;99.90;;;;;;4996970;28;20034;-73
2023/04/14 10:36:37;;;;;;;7.03;2.30;;;14.70;99.90;;;;;;5032967;28;20045;-73
2023/04/14 10:39:04;;;;;;;7.40;2.20;;;15.10;99.90;;;;;;5009421;28;20038;-73
2023/04/14 10:41:40;;;;;;;5.03;2.10;;;15.40;99.90;;;;;;5009942;28;20501;-73
2023/04/14 10:44:21;;;;;;;8.32;2.20;;;15.40;99.90;;;;;;5015516;28;20034;-73
2023/04/14 10:46:48;;;;;;;7.25;2.42;;;15.50;99.50;;;;;;5001436;28;20045;-72
2023/04/14 10:49:14;;;;;;;6.13;2.28;;;15.50;99.80;;;;;;5016323;28;20293;-73
2023/04/14 10:51:40;;;;;;;5.82;2.08;;;15.70;99.60;;;;;;5010218;28;20099;-73
2023/04/14 10:54:18;;;;;;;6.10;2.30;;;15.90;99.90;;;;;;4995335;28;20092;-75
2023/04/14 10:57:13;;;;;;;9.55;2.45;;;16.30;97.50;;;;;;5021458;28;20033;-74
2023/04/14 10:59:45;;;;;;;6.45;2.00;;;16.40;95.60;;;;;;4996506;28;20125;-75
2023/04/14 11:02:24;;;;;;;;;;;16.10;96.80;;;;;;5012171;28;20076;-75
2023/04/14 11:05:03;;;;;;;9.40;2.10;;;15.90;95.70;;;;;;5033707;28;19917;-74
2023/04/14 11:07:46;;;;;;;3.97;1.97;;;15.50;96.10;;;;;;4997040;28;20037;-74
2023/04/14 11:10:24;;;;;;;7.75;1.88;;;15.50;97.80;;;;;;5008616;28;20038;-74
2023/04/14 11:13:02;;;;;;;4.20;1.55;;;15.80;96.20;;;;;;5000421;28;20035;-73
2023/04/14 11:15:56;;;;;;;6.55;1.75;;;15.90;96.20;;;;;;4997581;28;20045;-73
2023/04/14 11:18:27;;;;;;;7.60;1.90;;;15.90;94.50;;;;;;5012696;28;20401;-74
2023/04/14 11:20:59;;;;;;;8.57;2.10;;;15.90;94.20;;;;;;5019464;28;20049;-73
2023/04/14 11:23:27;;;;;;;7.63;2.13;;;15.70;94.50;;;;;;4998246;28;20432;-73
2023/04/14 11:25:53;;;;;;;7.57;2.25;;;15.50;93.50;;;;;;5011582;28;20072;-72
2023/04/14 11:28:29;;;;;;;7.53;2.58;;;15.50;94.80;;;;;;5000774;28;20074;-73
2023/04/14 11:30:59;;;;;;;5.78;1.90;;;15.80;94.40;;;;;;5028472;28;20069;-73
2023/04/14 11:33:40;;;;;;;7.07;2.00;;;16.10;94.00;;;;;;5017576;28;20056;-74
2023/04/14 11:36:09;;;;;;;7.15;2.10;;;15.80;91.60;;;;;;5029085;28;20040;-74
2023/04/14 11:38:41;;;;;;;5.40;1.70;;;15.70;92.90;;;;;;5007429;28;20072;-73
2023/04/14 11:41:08;;;;;;;5.97;1.90;;;15.70;90.70;;;;;;5026003;28;20566;-73
2023/04/14 11:43:34;;;;;;;7.50;1.73;;;15.70;92.00;;;;;;5012306;28;20044;-73
2023/04/14 11:46:03;;;;;;;5.60;1.95;;;15.70;93.00;;;;;;5031998;28;20041;-73
2023/04/14 11:48:29;;;;;;;6.03;1.65;;;15.90;93.70;;;;;;4997906;28;20041;-73
2023/04/14 11:51:01;;;;;;;4.13;1.60;;;16.10;92.60;;;;;;5027120;28;20445;-74
2023/04/14 11:53:27;;;;;;;5.65;1.63;;;16.40;93.90;;;;;;5013759;28;20095;-74
2023/04/14 11:55:53;;;;;;;5.13;2.03;;;16.70;94.50;;;;;;5011205;28;20037;-73
2023/04/14 11:58:26;;;;;;;5.10;1.80;;;16.90;91.80;;;;;;4997600;28;20405;-73
2023/04/14 12:00:58;;;;;;;7.03;2.30;;;17.00;91.40;;;;;;5007841;28;20045;-74
2023/04/14 12:03:34;;;;;;;;;;;16.90;89.70;;;;;;5011804;28;20040;-73
2023/04/14 12:06:02;;;;;;;6.07;1.80;;;16.60;87.30;;;;;;5020476;28;19917;-74
2023/04/14 12:08:32;;;;;;;4.70;1.60;;;16.60;91.70;;;;;;4993267;28;20030;-74
2023/04/14 12:11:12;;;;;;;6.57;1.98;;;17.40;92.70;;;;;;4997449;28;20061;-73
2023/04/14 12:13:40;;;;;;;7.47;2.10;;;17.00;86.20;;;;;;4996014;28;20460;-72
2023/04/14 12:16:06;;;;;;;5.63;2.08;;;16.90;85.70;;;;;;5023003;28;20499;-73
2023/04/14 12:18:32;;;;;;;5.78;2.03;;;16.90;87.60;;;;;;5011337;28;20084;-74
2023/04/14 12:21:03;;;;;;;6.70;1.80;;;16.90;90.00;;;;;;5029664;28;20076;-73
2023/04/14 12:23:33;;;;;;;4.60;1.70;;;17.10;90.60;;;;;;4997865;28;20383;-73
2023/04/14 12:25:59;;;;;;;5.50;1.60;;;17.30;90.00;;;;;;5000219;28;20045;-72
2023/04/14 12:28:28;;;;;;;5.35;1.80;;;17.50;89.30;;;;;;5014986;28;20375;-73
2023/04/14 12:31:03;;;;;;;4.85;2.10;;;17.40;81.80;;;;;;5024727;28;20042;-73
2023/04/14 12:33:30;;;;;;;5.60;1.90;;;17.20;77.80;;;;;;5009064;28;20073;-73
2023/04/14 12:36:01;;;;;;;6.88;1.90;;;17.00;80.80;;;;;;5022216;28;20497;-73
2023/04/14 12:38:28;;;;;;;8.70;2.15;;;16.70;83.70;;;;;;5017239;28;20505;-73
2023/04/14 12:40:55;;;;;;;6.18;2.03;;;16.80;87.50;;;;;;5029607;28;20033;-73
2023/04/14 12:43:37;;;;;;;4.80;1.85;;;17.00;90.00;;;;;;5008314;28;20073;-73
2023/04/14 12:46:04;;;;;;;5.13;2.03;;;17.30;90.30;;;;;;5023379;28;20490;-73
2023/04/14 12:48:39;;;;;;;7.25;2.10;;;17.40;90.10;;;;;;5027514;28;20084;-73
2023/04/14 12:51:13;;;;;;;6.22;2.25;;;17.60;89.00;;;;;;4996134;28;20042;-73
2023/04/14 12:53:41;;;;;;;5.78;2.15;;;17.30;84.30;;;;;;5010437;28;20042;-73
2023/04/14 12:56:12;;;;;;;5.70;2.13;;;17.20;86.00;;;;;;5001832;28;20044;-73
2023/04/14 12:58:39;;;;;;;5.50;2.00;;;17.00;87.50;;;;;;5022189;28;20064;-73
2023/04/14 13:01:08;;;;;;;7.05;2.20;;;17.10;86.30;;;;;;4996631;28;20046;-73